This is the latest recevied weather packets stored in our database for station/object 9A7DI-13. If no packets are shown the sender has not sent any weather packets the latest 10 day(s).
| Time | Temp. | Humidity | Pressure | Rain* | Wind** | Luminosity | Snow |
|---|---|---|---|---|---|---|---|
| 1777458439 | 12.22° C | 50% | 1031.1 hPa | - | - | - | - |
| 1777457839 | 11.67° C | 50% | 1031.1 hPa | - | - | - | - |
| 1777457239 | 11.67° C | 50% | 1031.1 hPa | - | - | - | - |
| 1777456640 | 11.67° C | 55% | 1031 hPa | - | - | - | - |
| 1777456039 | 12.22° C | 53% | 1031.1 hPa | - | - | - | - |
| 1777455439 | 11.11° C | 59% | 1031.1 hPa | - | - | - | - |
| 1777454839 | 12.22° C | 53% | 1031.1 hPa | - | - | - | - |
| 1777454239 | 12.22° C | 52% | 1031.1 hPa | - | - | - | - |
| 1777453640 | 12.22° C | 51% | 1031.1 hPa | - | - | - | - |
| 1777453039 | 12.22° C | 51% | 1031.1 hPa | - | - | - | - |
| 1777452439 | 11.67° C | 54% | 1030.9 hPa | - | - | - | - |
| 1777451839 | 11.67° C | 54% | 1031 hPa | - | - | - | - |
| 1777451239 | 11.67° C | 54% | 1030.9 hPa | - | - | - | - |
| 1777450639 | 11.67° C | 51% | 1030.8 hPa | - | - | - | - |
| 1777450040 | 11.11° C | 55% | 1030.7 hPa | - | - | - | - |
| 1777449440 | 11.11° C | 53% | 1030.5 hPa | - | - | - | - |
| 1777448839 | 10.56° C | 52% | 1030.5 hPa | - | - | - | - |
| 1777448240 | 10.56° C | 53% | 1030.4 hPa | - | - | - | - |
| 1777447639 | 10° C | 55% | 1030.5 hPa | - | - | - | - |
| 1777447039 | 10° C | 54% | 1030.3 hPa | - | - | - | - |
| 1777446439 | 9.44° C | 56% | 1030.1 hPa | - | - | - | - |
| 1777445840 | 10° C | 57% | 1030 hPa | - | - | - | - |
| 1777445240 | 10° C | 58% | 1029.9 hPa | - | - | - | - |
| 1777444640 | 10° C | 56% | 1029.8 hPa | - | - | - | - |
| 1777444040 | 10° C | 57% | 1029.7 hPa | - | - | - | - |
* Rain since midnight (hover to see other rain measurements)
** Current wind speed in m/s (hover to see current wind gust speed)